Abington, Connecticut
Current Conditions -  °F | °C
As of 11:52 AM on Saturday 20 Dec 2014 (Local Time) from KIJD Reporting Station
Overcast Overcast  
Wind Chill: 27°   Ceiling: 2700
Heat Index: 33°   Visibility: 10mi
Dew Point: 22°   Wind: 7mph
Humidity: 64%   Direction: 20°NNE
Pressure: 30.26"   Gusts: NA
Location:  41.86°N, 72.01°W
Report Text: KIJD 201652Z AUTO 02006KT 10SM OVC027 01/M06 A3026 RMK AO2 SLP248 T00061056
Loading
Personal Weather Stations






























Interactive Weather Map New forecast layout! Learn more

10-Day Weather Forecast

Advertisements
Track Severe Weather on mobile